History for KNYNEWYO912

The Dog, New York City, NY — Current Conditions
Daily Summary for January 20, 2019
  Current: High: Low: Average:
Temperature: 20.3°F 46.7°F 20.3°F 33.5°F
Dew Point: 10.0°F 40.0°F 10.0°F 27.3°F
Humidity: 65% 80% 62% 77%
Wind Speed: 24.0mph 27.0mph - 10.8mph
Wind Gust: 34.0mph 39.0mph - -
Wind: WNW - - North
Pressure: 29.59in 29.92in 29.35in -
Precipitation: 1.13in      
Statistics for the rest of the month
    High: Low: Average:
Temperature:   56.0°F 17.5°F 32.8°F
Dew Point:   47.0°F -4.0°F 18.1°F
Humidity:   80.0% 24.0% 55.8%
Wind Speed:   39.0mph from the WSW - 8.1mph
Wind Gust:   43.0mph from the WSW - -
Wind:   - - West
Pressure:   30.67in 29.35in -
Precipitation:   2.01in    
KNYNEWYO912 Weather Graph
Tabular Data for January 20, 2019
Time Temp. Windchill Dew Point Pressure Wind Gust Humidity Rainfall
00:00 32.1°F 26.4°F 26.0°F 29.92in 15.0mph 79% 0.17in
00:15 32.3°F 28.4°F 26.0°F 29.92in 16.0mph 79% 0.19in
00:30 32.6°F 27.8°F 27.0°F 29.92in 12.0mph 80% 0.22in
00:45 32.6°F 25.0°F 27.0°F 29.87in 19.0mph 79% 0.23in
01:00 32.8°F 23.4°F 27.0°F 29.83in 21.0mph 80% 0.24in
01:15 32.9°F 29.1°F 27.0°F 29.82in 18.0mph 80% 0.25in
01:30 33.3°F 27.8°F 28.0°F 29.84in 16.0mph 80% 0.22in
01:45 33.2°F 25.2°F 27.0°F 29.83in 19.0mph 79% 0.22in
02:00 33.3°F 28.6°F 28.0°F 29.83in 18.0mph 80% 0.20in
02:15 32.8°F 29.0°F 27.0°F 29.82in 14.0mph 79% 0.20in
02:30 33.1°F - 27.0°F 29.83in 11.0mph 79% 0.19in
02:45 32.7°F 28.9°F 27.0°F 29.79in 18.0mph 80% 0.17in
03:00 32.6°F 22.4°F 27.0°F 29.74in 21.0mph 79% 0.14in
03:15 32.7°F 22.9°F 27.0°F 29.74in 25.0mph 80% 0.11in
03:30 32.7°F 23.3°F 27.0°F 29.71in 29.0mph 80% 0.13in
03:45 32.9°F 22.8°F 27.0°F 29.71in 21.0mph 80% 0.12in
04:00 33.2°F 27.7°F 28.0°F 29.70in 20.0mph 80% 0.16in
04:15 33.2°F 28.5°F 28.0°F 29.67in 19.0mph 80% 0.17in
04:30 33.4°F 23.1°F 28.0°F 29.66in 21.0mph 80% 0.13in
04:45 33.6°F 29.0°F 28.0°F 29.64in 21.0mph 80% 0.12in
05:00 33.6°F 25.2°F 28.0°F 29.63in 22.0mph 80% 0.10in
05:15 33.4°F 27.9°F 28.0°F 29.61in 23.0mph 80% 0.10in
05:30 33.4°F - 28.0°F 29.58in 26.0mph 80% 0.09in
05:45 33.5°F 27.3°F 28.0°F 29.59in 21.0mph 80% 0.08in
06:00 33.5°F 28.8°F 28.0°F 29.57in 22.0mph 80% 0.06in
06:15 34.0°F 26.2°F 28.0°F 29.56in 16.0mph 80% 0.05in
06:30 34.8°F 28.3°F 29.0°F 29.55in 17.0mph 80% 0.05in
06:45 35.2°F 30.8°F 30.0°F 29.53in 17.0mph 80% 0.05in
07:00 35.5°F 26.8°F 30.0°F 29.52in 17.0mph 80% 0.05in
07:15 36.6°F 28.2°F 31.0°F 29.48in 22.0mph 80% 0.06in
07:30 37.4°F 31.4°F 32.0°F 29.46in 18.0mph 80% 0.06in
07:45 36.6°F 29.4°F 31.0°F 29.46in 18.0mph 79% 0.05in
08:00 36.3°F 29.1°F 30.0°F 29.46in 17.0mph 79% 0.04in
08:15 37.1°F 32.3°F 31.0°F 29.48in 16.0mph 80% 0.02in
08:30 40.2°F - 34.0°F 29.46in 13.0mph 79% 0.04in
08:45 40.4°F 37.8°F 34.0°F 29.46in 19.0mph 79% 0.07in
09:00 43.4°F 37.5°F 37.0°F 29.42in 21.0mph 79% 0.08in
09:15 44.4°F 38.1°F 38.0°F 29.40in 25.0mph 79% 0.08in
09:30 44.2°F 41.4°F 38.0°F 29.40in 29.0mph 79% 0.06in
09:45 44.2°F 39.7°F 38.0°F 29.37in 18.0mph 79% 0.03in
10:00 45.0°F 37.7°F 39.0°F 29.36in 20.0mph 78% 0.02in
10:15 46.3°F 39.9°F 40.0°F 29.35in 20.0mph 78% 0.01in
10:30 46.7°F - 40.0°F 29.36in 25.0mph 78% 0.00in
11:00 42.2°F 37.8°F 36.0°F 29.36in 27.0mph 78% 0.01in
11:15 37.0°F 27.1°F 31.0°F 29.39in 22.0mph 78% 0.01in
11:30 37.0°F 30.9°F 31.0°F 29.36in 18.0mph 79% 0.01in
11:45 35.5°F 29.1°F 30.0°F 29.36in 16.0mph 79% 0.01in
12:00 34.2°F 25.2°F 28.0°F 29.36in 18.0mph 79% 0.00in
12:15 32.6°F 21.1°F 27.0°F 29.36in 28.0mph 79% 0.00in
12:30 32.8°F 23.0°F 27.0°F 29.35in 20.0mph 80% 0.00in
12:45 33.4°F 24.1°F 28.0°F 29.36in 24.0mph 80% 0.00in
13:00 33.8°F 25.5°F 28.0°F 29.37in 21.0mph 79% 0.00in
13:15 34.2°F 27.0°F 28.0°F 29.38in 20.0mph 78% 0.00in
13:30 34.9°F 25.7°F 28.0°F 29.39in 24.0mph 77% 0.01in
13:45 34.5°F 24.8°F 27.0°F 29.40in 25.0mph 75% 0.01in
14:00 32.5°F 20.7°F 24.0°F 29.41in 30.0mph 72% 0.01in
14:15 31.0°F 18.4°F 22.0°F 29.42in 31.0mph 70% 0.01in
14:30 29.3°F 18.1°F 21.0°F 29.43in 30.0mph 71% 0.00in
14:45 28.0°F 16.1°F 19.0°F 29.46in 29.0mph 70% 0.00in
15:00 27.5°F 18.2°F 19.0°F 29.47in 27.0mph 70% 0.00in
15:15 26.6°F 16.5°F 17.0°F 29.48in 27.0mph 68% 0.00in
15:30 26.1°F 15.4°F 16.0°F 29.49in 30.0mph 67% 0.00in
15:45 25.8°F 15.0°F 16.0°F 29.50in 29.0mph 67% 0.00in
16:00 24.8°F 13.3°F 15.0°F 29.53in 34.0mph 66% 0.00in
16:15 23.9°F 10.1°F 13.0°F 29.54in 33.0mph 64% 0.00in
16:30 22.8°F 5.9°F 11.0°F 29.55in 39.0mph 62% 0.00in
16:45 22.2°F 7.5°F 12.0°F 29.57in 32.0mph 64% 0.00in
17:00 20.3°F 3.4°F 10.0°F 29.59in 34.0mph 65% 0.00in
Comma Delimited File
Powered by Weather Underground, Inc.